createdAt,value
2022-08-12T00:02:03.172Z,100951.38
2022-08-12T00:04:51.472Z,100936.09
2022-08-12T00:07:36.760Z,100943.06
2022-08-12T00:10:22.647Z,100936.69
2022-08-12T00:13:08.094Z,100938.56
2022-08-12T00:15:54.832Z,100931.50
2022-08-12T00:18:40.313Z,100937.72
2022-08-12T00:21:25.673Z,100936.06
2022-08-12T00:24:12.807Z,100935.44
2022-08-12T00:26:59.994Z,100937.97
2022-08-12T00:29:48.140Z,100937.56
2022-08-12T00:32:35.938Z,100936.50
2022-08-12T00:35:27.398Z,100938.63
2022-08-12T00:38:23.187Z,100937.31
2022-08-12T00:41:08.590Z,100942.41
2022-08-12T00:43:36.532Z,100941.16
2022-08-12T00:46:22.255Z,100935.75
2022-08-12T00:48:49.958Z,100932.41
2022-08-12T00:51:17.259Z,100934.28
2022-08-12T00:53:44.327Z,100936.00
2022-08-12T00:56:11.199Z,100934.63
2022-08-12T00:58:39.719Z,100930.44
2022-08-12T01:01:08.705Z,100935.88
2022-08-12T01:03:56.614Z,100937.59
2022-08-12T01:06:45.876Z,100940.59
2022-08-12T01:09:37.033Z,100943.72
2022-08-12T01:12:05.842Z,100940.88
2022-08-12T01:14:32.850Z,100941.34
2022-08-12T01:16:59.954Z,100944.91
2022-08-12T01:19:26.808Z,100949.94
2022-08-12T01:22:16.494Z,100945.84
2022-08-12T01:24:44.021Z,100947.09
2022-08-12T01:27:11.359Z,100951.69
2022-08-12T01:29:43.959Z,100951.00
2022-08-12T01:32:14.374Z,100952.50
2022-08-12T01:35:14.656Z,100963.06
2022-08-12T01:37:48.592Z,100955.69
2022-08-12T01:40:31.436Z,100962.22
2022-08-12T01:43:09.928Z,100968.88
2022-08-12T01:45:59.501Z,100964.19
2022-08-12T01:48:43.739Z,100966.16
2022-08-12T01:52:15.045Z,100963.00
2022-08-12T01:54:38.684Z,100956.50
2022-08-12T01:57:57.620Z,100963.81
2022-08-12T02:00:17.458Z,100953.00
2022-08-12T02:03:02.069Z,100954.38
2022-08-12T02:06:16.002Z,100961.50
2022-08-12T02:09:06.000Z,100948.66
2022-08-12T02:11:36.129Z,100958.84
2022-08-12T02:14:13.373Z,100950.84
2022-08-12T02:16:46.650Z,100954.25
2022-08-12T02:19:22.818Z,100958.34
2022-08-12T02:21:49.988Z,100960.13
2022-08-12T02:24:20.851Z,100951.78
2022-08-12T02:26:51.625Z,100951.44
2022-08-12T02:29:20.274Z,100949.06
2022-08-12T02:31:47.748Z,100938.47
2022-08-12T02:34:16.636Z,100942.13
2022-08-12T02:36:44.983Z,100944.81
2022-08-12T02:39:16.404Z,100941.78
2022-08-12T02:41:44.680Z,100947.91
2022-08-12T02:44:15.228Z,100945.44
2022-08-12T02:46:49.190Z,100941.09
2022-08-12T02:49:22.949Z,100947.19
2022-08-12T02:51:50.408Z,100946.28
2022-08-12T02:54:17.490Z,100945.09
2022-08-12T02:56:50.146Z,100945.56
2022-08-12T02:59:20.039Z,100935.94
2022-08-12T03:02:04.358Z,100942.47
2022-08-12T03:04:40.072Z,100946.03
2022-08-12T03:07:14.828Z,100935.66
2022-08-12T03:10:05.536Z,100937.19
2022-08-12T03:12:43.651Z,100933.88
2022-08-12T03:15:23.010Z,100937.91
2022-08-12T03:18:25.413Z,100941.44
2022-08-12T03:20:43.845Z,100935.31
2022-08-12T03:23:19.359Z,100938.00
2022-08-12T03:25:57.237Z,100944.69
2022-08-12T03:28:42.512Z,100944.81
2022-08-12T03:31:10.240Z,100942.34
2022-08-12T03:33:39.936Z,100943.06
2022-08-12T03:36:08.887Z,100934.34
2022-08-12T03:38:38.673Z,100934.97
2022-08-12T03:41:28.683Z,100945.41
2022-08-12T03:44:30.579Z,100942.72
2022-08-12T03:47:22.490Z,100945.19
2022-08-12T03:50:10.033Z,100950.38
2022-08-12T03:52:55.456Z,100944.81
2022-08-12T03:55:40.786Z,100947.19
2022-08-12T03:58:27.389Z,100937.56
2022-08-12T04:00:54.547Z,100943.41
2022-08-12T04:03:39.833Z,100948.72
2022-08-12T04:06:09.370Z,100948.25
2022-08-12T04:08:36.981Z,100942.50
2022-08-12T04:11:22.773Z,100948.94
2022-08-12T04:13:51.511Z,100952.81
2022-08-12T04:16:18.555Z,100951.16
2022-08-12T04:18:45.646Z,100940.81
2022-08-12T04:21:12.505Z,100940.47
2022-08-12T04:23:47.784Z,100943.53
2022-08-12T04:26:15.535Z,100941.38
2022-08-12T04:28:43.265Z,100937.41
2022-08-12T04:31:10.219Z,100949.03
2022-08-12T04:33:37.350Z,100940.78
2022-08-12T04:36:04.550Z,100935.09
2022-08-12T04:38:32.074Z,100930.81
2022-08-12T04:40:59.511Z,100939.69
2022-08-12T04:44:00.566Z,100944.13
2022-08-12T04:46:13.262Z,100936.69
2022-08-12T04:48:40.021Z,100940.28
2022-08-12T04:51:07.932Z,100934.16
2022-08-12T04:53:34.897Z,100940.28
2022-08-12T04:56:01.805Z,100937.03
2022-08-12T04:58:30.551Z,100932.69
2022-08-12T05:00:57.681Z,100931.75
2022-08-12T05:03:26.748Z,100933.53
2022-08-12T05:05:56.675Z,100936.47
2022-08-12T05:08:24.497Z,100939.50
2022-08-12T05:10:51.337Z,100932.22
2022-08-12T05:13:23.206Z,100934.94
2022-08-12T05:16:03.662Z,100932.13
2022-08-12T05:18:30.916Z,100929.78
2022-08-12T05:21:00.935Z,100926.38
2022-08-12T05:23:28.273Z,100928.03
2022-08-12T05:25:57.134Z,100922.16
2022-08-12T05:28:27.144Z,100929.84
2022-08-12T05:30:55.134Z,100935.41
2022-08-12T05:33:23.649Z,100934.28
2022-08-12T05:35:50.530Z,100923.22
2022-08-12T05:38:37.204Z,100921.44
2022-08-12T05:41:06.331Z,100921.06
2022-08-12T05:43:34.247Z,100933.16
2022-08-12T05:46:01.109Z,100922.69
2022-08-12T05:48:28.432Z,100928.63
2022-08-12T05:50:56.773Z,100934.72
2022-08-12T05:53:24.114Z,100926.75
2022-08-12T05:55:53.384Z,100935.09
2022-08-12T05:58:21.231Z,100936.38
2022-08-12T06:00:48.131Z,100936.84
2022-08-12T06:03:19.325Z,100945.31
2022-08-12T06:05:54.441Z,100942.94
2022-08-12T06:08:24.932Z,100944.59
2022-08-12T06:10:52.573Z,100941.91
2022-08-12T06:13:28.425Z,100943.81
2022-08-12T06:16:07.515Z,100948.63
2022-08-12T06:18:34.807Z,100944.44
2022-08-12T06:21:02.415Z,100938.66
2022-08-12T06:23:42.286Z,100935.34
2022-08-12T06:26:12.761Z,100941.91
2022-08-12T06:28:40.257Z,100932.44
2022-08-12T06:31:26.312Z,100935.66
2022-08-12T06:34:00.739Z,100943.41
2022-08-12T06:36:42.912Z,100946.06
2022-08-12T06:39:14.679Z,100945.34
2022-08-12T06:42:05.041Z,100943.28
2022-08-12T06:44:49.673Z,100942.47
2022-08-12T06:47:18.624Z,100945.28
2022-08-12T06:49:45.462Z,100944.44
2022-08-12T06:52:12.270Z,100949.78
2022-08-12T06:54:39.454Z,100951.69
2022-08-12T06:58:01.804Z,100953.19
2022-08-12T06:59:54.678Z,100953.91
2022-08-12T07:02:22.866Z,100952.19
2022-08-12T07:04:50.131Z,100955.16
2022-08-12T07:07:18.537Z,100957.91
2022-08-12T07:10:04.339Z,100960.00
2022-08-12T07:12:32.414Z,100958.13
2022-08-12T07:15:01.815Z,100963.06
2022-08-12T07:17:37.816Z,100967.09
2022-08-12T07:20:29.605Z,100965.84
2022-08-12T07:22:58.587Z,100960.63
2022-08-12T07:28:33.784Z,100968.75
2022-08-12T07:31:00.656Z,100965.63
2022-08-12T07:33:29.244Z,100970.16
2022-08-12T07:35:58.669Z,100971.41
2022-08-12T07:38:30.721Z,100976.91
2022-08-12T07:41:15.777Z,100975.50
2022-08-12T07:43:51.612Z,100969.50
2022-08-12T07:46:21.309Z,100973.81
2022-08-12T07:48:51.417Z,100970.72
2022-08-12T07:51:24.978Z,100971.97
2022-08-12T07:54:00.008Z,100968.41
2022-08-12T07:56:31.661Z,100970.59
2022-08-12T07:59:01.291Z,100973.75
2022-08-12T08:01:28.666Z,100968.31
2022-08-12T08:04:18.723Z,100971.66
2022-08-12T08:06:47.421Z,100974.50
2022-08-12T08:09:16.352Z,100972.91
2022-08-12T08:12:01.713Z,100977.97
2022-08-12T08:14:29.230Z,100979.13
2022-08-12T08:17:00.984Z,100974.25
2022-08-12T08:19:29.347Z,100983.63
2022-08-12T08:21:57.103Z,100978.34
2022-08-12T08:24:25.970Z,100978.06
2022-08-12T08:26:54.756Z,100975.16
2022-08-12T08:29:22.733Z,100977.00
2022-08-12T08:31:54.437Z,100981.88
2022-08-12T08:34:49.273Z,100977.50
2022-08-12T08:37:10.569Z,100977.06
2022-08-12T08:39:42.475Z,100974.91
2022-08-12T08:42:28.147Z,100970.91
2022-08-12T08:44:58.916Z,100977.97
2022-08-12T08:47:26.099Z,100968.16
2022-08-12T08:49:52.997Z,100975.56
2022-08-12T08:52:38.820Z,100973.13
2022-08-12T08:55:09.504Z,100980.81
2022-08-12T08:57:43.163Z,100979.78
2022-08-12T09:00:20.063Z,100978.31
2022-08-12T09:06:01.549Z,100978.13
2022-08-12T09:08:26.935Z,100972.53
2022-08-12T09:11:00.028Z,100974.53
2022-08-12T09:14:11.039Z,100976.78
2022-08-12T09:16:20.748Z,100973.75
2022-08-12T09:21:54.638Z,100976.22
2022-08-12T09:24:22.214Z,100976.75
2022-08-12T09:26:49.549Z,100980.09
2022-08-12T09:30:10.660Z,100980.00
2022-08-12T09:32:10.029Z,100972.38
2022-08-12T09:34:55.013Z,100977.91
2022-08-12T09:37:26.804Z,100966.25
2022-08-12T09:40:04.396Z,100961.94
2022-08-12T09:43:17.073Z,100970.66
2022-08-12T09:46:07.083Z,100972.03
2022-08-12T09:48:36.706Z,100954.31
2022-08-12T09:51:16.794Z,100955.97
2022-08-12T09:54:08.494Z,100952.44
2022-08-12T09:56:59.709Z,100945.34
2022-08-12T10:00:15.620Z,100945.59
2022-08-12T10:02:48.462Z,100944.25
2022-08-12T10:05:01.820Z,100941.53
2022-08-12T10:07:39.686Z,100948.59
2022-08-12T10:10:22.552Z,100939.59
2022-08-12T10:13:11.073Z,100943.44
2022-08-12T10:16:02.480Z,100945.13
2022-08-12T10:18:32.806Z,100942.69
2022-08-12T10:21:09.519Z,100941.34
2022-08-12T10:23:39.916Z,100934.53
2022-08-12T10:26:37.889Z,100932.63
2022-08-12T10:30:38.144Z,100931.81
2022-08-12T10:32:45.501Z,100930.69
2022-08-12T10:35:11.711Z,100930.44
2022-08-12T10:38:34.202Z,100924.44
2022-08-12T10:40:32.203Z,100920.03
2022-08-12T10:43:18.827Z,100933.72
2022-08-12T10:45:49.721Z,100923.31
2022-08-12T10:48:27.169Z,100928.22
2022-08-12T10:51:51.991Z,100920.31
2022-08-12T10:53:52.665Z,100924.94
2022-08-12T10:56:19.768Z,100918.13
2022-08-12T10:58:48.628Z,100927.38
2022-08-12T11:01:49.541Z,100925.44
2022-08-12T11:04:26.953Z,100930.66
2022-08-12T11:07:07.263Z,100908.81
2022-08-12T11:09:55.893Z,100906.63
2022-08-12T11:12:56.298Z,100907.16
2022-08-12T11:15:21.005Z,100910.16
2022-08-12T11:17:54.019Z,100901.44
2022-08-12T11:20:24.495Z,100910.41
2022-08-12T11:23:25.486Z,100897.81
2022-08-12T11:25:57.926Z,100900.75
2022-08-12T11:28:34.602Z,100894.47
2022-08-12T11:31:05.415Z,100896.84
2022-08-12T11:34:05.665Z,100896.38
2022-08-12T11:36:21.889Z,100897.50
2022-08-12T11:38:50.696Z,100899.41
2022-08-12T11:41:27.955Z,100891.56
2022-08-12T11:44:35.278Z,100899.41
2022-08-12T11:46:51.308Z,100889.81
2022-08-12T11:49:31.787Z,100890.66
2022-08-12T11:52:00.929Z,100892.34
2022-08-12T11:54:29.616Z,100895.16
2022-08-12T11:56:59.371Z,100896.97
2022-08-12T12:02:18.955Z,100901.91
2022-08-12T12:04:52.534Z,100893.50
2022-08-12T12:07:22.715Z,100887.94
2022-08-12T12:10:01.497Z,100886.09
2022-08-12T12:12:28.293Z,100897.28
2022-08-12T12:14:55.838Z,100890.22
2022-08-12T12:17:37.991Z,100886.88
2022-08-12T12:20:09.299Z,100883.75
2022-08-12T12:22:40.776Z,100881.22
2022-08-12T12:25:12.921Z,100883.69
2022-08-12T12:28:05.903Z,100881.16
2022-08-12T12:30:38.665Z,100890.06
2022-08-12T12:33:07.298Z,100884.50
2022-08-12T12:36:18.158Z,100883.06
2022-08-12T12:38:25.151Z,100875.09
2022-08-12T12:40:52.541Z,100878.41
2022-08-12T12:43:28.477Z,100877.84
2022-08-12T12:46:04.111Z,100876.91
2022-08-12T12:48:31.290Z,100878.28
2022-08-12T12:51:48.411Z,100873.47
2022-08-12T12:54:06.439Z,100875.13
2022-08-12T12:56:35.194Z,100869.16
2022-08-12T12:59:03.845Z,100864.53
2022-08-12T13:01:37.776Z,100859.69
2022-08-12T13:04:12.115Z,100859.41
2022-08-12T13:06:42.034Z,100861.72
2022-08-12T13:09:13.241Z,100857.41
2022-08-12T13:11:41.390Z,100861.84
2022-08-12T13:14:27.913Z,100851.84
2022-08-12T13:16:56.443Z,100852.41
2022-08-12T13:19:36.034Z,100854.72
2022-08-12T13:22:19.242Z,100855.16
2022-08-12T13:24:55.569Z,100850.06
2022-08-12T13:27:35.270Z,100855.31
2022-08-12T13:30:11.375Z,100858.19
2022-08-12T13:32:57.727Z,100854.63
2022-08-12T13:35:33.317Z,100848.13
2022-08-12T13:38:34.491Z,100856.38
2022-08-12T13:41:03.496Z,100850.78
2022-08-12T13:43:40.973Z,100867.06
2022-08-12T13:46:12.375Z,100868.16
2022-08-12T13:48:45.138Z,100860.41
2022-08-12T13:51:13.991Z,100867.16
2022-08-12T13:53:58.947Z,100863.28
2022-08-12T13:56:31.510Z,100863.78
2022-08-12T13:59:08.471Z,100857.44
2022-08-12T14:01:40.726Z,100856.50
2022-08-12T14:04:11.408Z,100860.19
2022-08-12T14:06:40.288Z,100862.41
2022-08-12T14:09:15.248Z,100857.72
2022-08-12T14:11:51.222Z,100854.13
2022-08-12T14:14:27.432Z,100858.78
2022-08-12T14:16:54.277Z,100852.50
2022-08-12T14:19:22.905Z,100849.41
2022-08-12T14:22:00.883Z,100843.78
2022-08-12T14:24:35.408Z,100858.63
2022-08-12T14:27:09.332Z,100843.44
2022-08-12T14:30:04.803Z,100847.63
2022-08-12T14:32:35.344Z,100835.63
2022-08-12T14:35:09.210Z,100832.16
2022-08-12T14:37:57.745Z,100829.56
2022-08-12T14:40:29.681Z,100829.47
2022-08-12T14:42:58.267Z,100820.31
2022-08-12T14:45:44.336Z,100826.91
2022-08-12T14:48:14.847Z,100818.16
2022-08-12T14:51:03.264Z,100833.53
2022-08-12T14:59:57.180Z,100813.47
2022-08-12T15:02:25.962Z,100818.41
2022-08-12T15:04:56.123Z,100810.22
2022-08-12T15:07:33.337Z,100817.84
2022-08-12T15:10:10.169Z,100815.69
2022-08-12T15:12:40.644Z,100804.75
2022-08-12T15:15:10.239Z,100811.09
2022-08-12T15:17:38.696Z,100799.91
2022-08-12T15:20:32.010Z,100802.66
2022-08-12T15:22:55.685Z,100800.19
2022-08-12T15:25:22.715Z,100795.03
2022-08-12T15:28:05.709Z,100791.47
2022-08-12T15:30:35.322Z,100794.16
2022-08-12T15:33:12.948Z,100790.56
2022-08-12T15:35:50.320Z,100790.66
2022-08-12T15:38:25.231Z,100786.13
2022-08-12T15:40:53.672Z,100789.09
2022-08-12T15:44:16.901Z,100786.03
2022-08-12T15:46:15.935Z,100790.03
2022-08-12T15:48:47.491Z,100783.41
2022-08-12T15:51:57.646Z,100789.16
2022-08-12T15:54:34.368Z,100784.56
2022-08-12T15:57:06.040Z,100779.06
2022-08-12T16:00:02.314Z,100779.59
2022-08-12T16:02:26.840Z,100785.06
2022-08-12T16:04:54.281Z,100778.22
2022-08-12T16:07:29.580Z,100781.81
2022-08-12T16:10:05.466Z,100777.44
2022-08-12T16:12:43.197Z,100781.78
2022-08-12T16:15:13.437Z,100786.13
2022-08-12T16:18:18.175Z,100780.66
2022-08-12T16:20:33.437Z,100771.72
2022-08-12T16:23:04.379Z,100773.63
2022-08-12T16:26:06.258Z,100777.00
2022-08-12T16:28:37.616Z,100769.22
2022-08-12T16:31:05.637Z,100768.66
2022-08-12T16:33:59.107Z,100769.50
2022-08-12T16:36:25.569Z,100759.97
2022-08-12T16:38:52.720Z,100761.06
2022-08-12T16:41:19.548Z,100756.09
2022-08-12T16:43:46.812Z,100763.81
2022-08-12T16:46:32.264Z,100761.88
2022-08-12T16:49:04.292Z,100756.44
2022-08-12T16:51:45.975Z,100770.09
2022-08-12T16:54:19.209Z,100760.72
2022-08-12T16:56:54.840Z,100754.19
2022-08-12T16:59:30.918Z,100753.91
2022-08-12T17:02:18.041Z,100756.66
2022-08-12T17:04:59.865Z,100752.34
2022-08-12T17:07:36.472Z,100754.22
2022-08-12T17:10:08.295Z,100750.44
2022-08-12T17:12:37.666Z,100754.56
2022-08-12T17:15:21.434Z,100752.78
2022-08-12T17:18:42.262Z,100750.50
2022-08-12T17:20:49.421Z,100749.47
2022-08-12T17:23:19.120Z,100750.63
2022-08-12T17:25:53.071Z,100747.06
2022-08-12T17:28:22.692Z,100744.84
2022-08-12T17:30:56.466Z,100742.94
2022-08-12T17:33:27.076Z,100742.88
2022-08-12T17:35:58.559Z,100740.56
2022-08-12T17:38:25.283Z,100739.06
2022-08-12T17:40:54.546Z,100746.41
2022-08-12T17:43:52.068Z,100746.59
2022-08-12T17:46:12.892Z,100747.22
2022-08-12T17:48:54.962Z,100739.47
2022-08-12T17:51:24.531Z,100744.28
2022-08-12T17:54:11.279Z,100729.31
2022-08-12T17:56:43.188Z,100739.38
2022-08-12T17:59:12.310Z,100744.41
2022-08-12T18:01:45.640Z,100732.94
2022-08-12T18:04:22.814Z,100731.16
2022-08-12T18:07:02.482Z,100728.91
2022-08-12T18:09:36.479Z,100739.78
2022-08-12T18:12:24.341Z,100733.16
2022-08-12T18:15:03.040Z,100736.47
2022-08-12T18:17:39.244Z,100736.97
2022-08-12T18:20:15.386Z,100733.47
2022-08-12T18:22:43.519Z,100742.47
2022-08-12T18:25:37.842Z,100739.16
2022-08-12T18:28:15.759Z,100741.88
2022-08-12T18:30:45.412Z,100736.03
2022-08-12T18:33:23.856Z,100744.00
2022-08-12T18:35:53.819Z,100745.19
2022-08-12T18:38:24.738Z,100743.34
2022-08-12T18:41:17.509Z,100740.22
2022-08-12T18:44:06.090Z,100747.34
2022-08-12T18:46:48.875Z,100742.88
2022-08-12T18:49:31.949Z,100749.00
2022-08-12T18:52:05.428Z,100749.50
2022-08-12T18:54:41.516Z,100744.25
2022-08-12T18:57:45.823Z,100750.13
2022-08-12T19:00:06.329Z,100751.38
2022-08-12T19:02:39.871Z,100743.13
2022-08-12T19:05:10.956Z,100752.88
2022-08-12T19:08:00.304Z,100745.63
2022-08-12T19:10:31.172Z,100751.53
2022-08-12T19:13:23.114Z,100753.53
2022-08-12T19:15:53.615Z,100752.06
2022-08-12T19:18:21.964Z,100740.13
2022-08-12T19:20:50.644Z,100744.09
2022-08-12T19:23:20.977Z,100752.00
2022-08-12T19:25:59.268Z,100753.66
2022-08-12T19:28:35.728Z,100757.00
2022-08-12T19:31:56.827Z,100753.66
2022-08-12T19:35:13.868Z,100758.97
2022-08-12T19:37:26.808Z,100757.03
2022-08-12T19:40:09.127Z,100759.59
2022-08-12T19:42:57.810Z,100756.06
2022-08-12T19:45:41.835Z,100756.06
2022-08-12T19:48:16.772Z,100756.69
2022-08-12T19:50:50.325Z,100756.06
2022-08-12T19:53:23.024Z,100758.28
2022-08-12T19:55:54.188Z,100753.41
2022-08-12T19:58:22.605Z,100759.75
2022-08-12T20:00:53.529Z,100764.81
2022-08-12T20:03:40.006Z,100769.41
2022-08-12T20:06:16.045Z,100771.63
2022-08-12T20:08:55.684Z,100773.63
2022-08-12T20:12:14.048Z,100770.72
2022-08-12T20:14:19.563Z,100775.88
2022-08-12T20:16:54.286Z,100778.13
2022-08-12T20:19:53.318Z,100775.41
2022-08-12T20:22:16.777Z,100773.00
2022-08-12T20:24:55.225Z,100776.78
2022-08-12T20:27:29.691Z,100787.50
2022-08-12T20:30:13.659Z,100785.09
2022-08-12T20:32:54.097Z,100771.50
2022-08-12T20:35:24.782Z,100773.50
2022-08-12T20:38:06.290Z,100767.44
2022-08-12T20:40:48.051Z,100770.34
2022-08-12T20:43:15.704Z,100777.09
2022-08-12T20:45:51.138Z,100768.34
2022-08-12T20:48:25.544Z,100769.78
2022-08-12T20:50:55.659Z,100761.63
2022-08-12T20:53:33.039Z,100774.00
2022-08-12T20:56:38.957Z,100771.69
2022-08-12T20:59:11.668Z,100765.13
2022-08-12T21:01:48.655Z,100774.47
2022-08-12T21:04:35.827Z,100772.63
2022-08-12T21:07:08.959Z,100775.78
2022-08-12T21:09:44.468Z,100782.28
2022-08-12T21:12:28.552Z,100775.53
2022-08-12T21:15:23.304Z,100778.56
2022-08-12T21:18:11.299Z,100770.63
2022-08-12T21:20:50.860Z,100770.06
2022-08-12T21:23:21.213Z,100768.16
2022-08-12T21:25:49.203Z,100764.50
2022-08-12T21:28:20.653Z,100756.81
2022-08-12T21:31:10.664Z,100755.09
2022-08-12T21:33:58.548Z,100749.75
2022-08-12T21:36:32.223Z,100741.25
2022-08-12T21:39:20.701Z,100741.41
2022-08-12T21:41:52.278Z,100740.88
2022-08-12T21:44:23.916Z,100734.91
2022-08-12T21:47:21.110Z,100737.56
2022-08-12T21:50:04.151Z,100737.69
2022-08-12T21:52:41.141Z,100736.28
2022-08-12T21:55:17.935Z,100733.69
2022-08-12T21:57:54.328Z,100733.38
2022-08-12T22:00:32.567Z,100730.81
2022-08-12T22:04:02.162Z,100735.22
2022-08-12T22:06:30.566Z,100740.44
2022-08-12T22:09:15.603Z,100739.25
2022-08-12T22:11:56.362Z,100734.38
2022-08-12T22:14:30.059Z,100735.41
2022-08-12T22:16:58.588Z,100734.06
2022-08-12T22:19:27.717Z,100724.03
2022-08-12T22:21:55.876Z,100722.91
2022-08-12T22:24:27.736Z,100723.19
2022-08-12T22:27:18.126Z,100728.78
2022-08-12T22:30:16.413Z,100726.56
2022-08-12T22:32:51.672Z,100725.84
2022-08-12T22:35:55.346Z,100727.53
2022-08-12T22:38:26.646Z,100722.53
2022-08-12T22:41:02.063Z,100728.16
2022-08-12T22:43:58.973Z,100721.06
2022-08-12T22:46:52.942Z,100729.41
2022-08-12T22:49:48.804Z,100718.31
2022-08-12T22:52:14.144Z,100720.47
2022-08-12T22:55:00.040Z,100723.31
2022-08-12T22:57:53.636Z,100720.97
2022-08-12T23:00:24.131Z,100712.44
2022-08-12T23:03:00.467Z,100711.75
2022-08-12T23:05:36.838Z,100719.50
2022-08-12T23:08:30.013Z,100713.41
2022-08-12T23:11:00.400Z,100706.53
2022-08-12T23:13:45.830Z,100709.66
2022-08-12T23:16:28.229Z,100713.41
2022-08-12T23:19:10.467Z,100711.38
2022-08-12T23:22:04.486Z,100711.00
2022-08-12T23:24:38.785Z,100703.13
2022-08-12T23:27:44.442Z,100704.06
2022-08-12T23:30:19.510Z,100707.97
2022-08-12T23:32:54.593Z,100702.09
2022-08-12T23:35:45.595Z,100710.47
2022-08-12T23:38:19.010Z,100699.28
2022-08-12T23:41:00.823Z,100705.25
2022-08-12T23:43:39.750Z,100699.19
2022-08-12T23:46:18.551Z,100702.28
2022-08-12T23:48:48.046Z,100703.75
2022-08-12T23:51:24.573Z,100695.31
2022-08-12T23:54:02.586Z,100697.59
2022-08-12T23:56:33.693Z,100692.72
2022-08-12T23:59:10.330Z,100697.22
